Time;durP1;ratioP1;P1;durP2;ratioP2;P2;SDS_P1;SDS_P2;PMS_P1;PMS_P2;Temp;Humidity;BMP_temperature;BMP_pressure;BME280_temperature;BME280_humidity;BME280_pressure;Samples;Min_cycle;Max_cycle;Signal;HPM_P1;HPM_P2
2023/03/25 00:01:40;;;;;;;3.93;1.87;;;10.10;87.40;;;9.91;75.43;97231.25;5092624;28;20571;-79
2023/03/25 00:04:09;;;;;;;2.73;2.50;;;9.90;89.60;;;9.99;74.47;97213.09;5102744;28;20934;-78
2023/03/25 00:06:38;;;;;;;2.50;1.70;;;9.90;90.10;;;9.72;74.89;97206.25;5108845;28;20434;-78
2023/03/25 00:09:05;;;;;;;2.00;1.90;;;9.80;89.50;;;9.70;75.86;97205.63;5103221;28;20451;-79
2023/03/25 00:11:32;;;;;;;2.80;1.90;;;9.80;90.30;;;9.85;76.06;97207.91;5122975;28;20566;-78
2023/03/25 00:14:00;;;;;;;3.53;2.10;;;9.80;90.90;;;9.90;75.54;97221.53;5098029;28;20450;-79
2023/03/25 00:16:27;;;;;;;2.80;2.23;;;9.70;91.20;;;9.72;76.31;97206.25;5105958;28;20445;-81
2023/03/25 00:18:54;;;;;;;3.40;2.53;;;9.70;91.40;;;9.75;77.06;97203.06;5079616;28;20461;-78
2023/03/25 00:21:22;;;;;;;4.20;3.10;;;9.70;91.50;;;9.77;76.33;97208.22;5088926;28;20528;-79
2023/03/25 00:23:51;;;;;;;3.97;2.83;;;9.70;91.40;;;9.81;75.92;97211.28;5094828;28;20976;-79
2023/03/25 00:26:18;;;;;;;3.40;2.93;;;9.70;91.40;;;9.76;76.88;97193.09;5102832;27;20453;-78
2023/03/25 00:28:46;;;;;;;4.70;2.77;;;9.70;91.50;;;9.70;76.06;97194.84;5088920;28;20447;-77
2023/03/25 00:31:14;;;;;;;4.67;3.10;;;9.70;91.10;;;9.59;76.17;97179.47;5090574;28;20438;-77
2023/03/25 00:33:42;;;;;;;3.50;2.80;;;9.70;90.90;;;9.21;75.86;97127.50;5089305;28;20452;-78
2023/03/25 00:36:13;;;;;;;7.10;3.23;;;9.60;90.80;;;9.61;75.68;97197.03;5088370;28;20601;-76
2023/03/25 00:38:42;;;;;;;3.30;3.00;;;9.70;90.70;;;9.65;76.01;97192.00;5084340;28;20476;-78
2023/03/25 00:41:16;;;;;;;3.83;2.93;;;9.60;90.60;;;9.64;75.59;97185.81;5102049;27;20898;-78
2023/03/25 00:43:44;;;;;;;3.40;3.07;;;9.70;90.30;;;9.52;75.28;97159.84;5087918;28;20482;-78
2023/03/25 00:46:11;;;;;;;2.53;2.33;;;9.60;90.30;;;9.74;75.20;97173.63;5080731;28;20478;-79
2023/03/25 00:48:40;;;;;;;5.77;2.77;;;9.70;90.10;;;9.60;75.64;97173.81;5084887;28;20559;-77
2023/03/25 00:51:08;;;;;;;4.27;2.90;;;9.70;90.00;;;9.53;75.49;97173.09;5082985;28;20568;-77
2023/03/25 00:53:37;;;;;;;3.67;2.50;;;9.60;90.20;;;9.48;75.21;97170.28;5084391;28;20464;-79
2023/03/25 00:56:07;;;;;;;3.67;2.30;;;9.60;89.50;;;9.56;74.94;97186.13;5086600;28;20531;-79
2023/03/25 00:58:35;;;;;;;3.30;2.80;;;9.60;89.90;;;9.47;75.37;97184.78;5090176;28;20459;-79
2023/03/25 01:01:11;;;;;;;4.53;2.30;;;9.60;89.80;;;9.47;76.24;97191.03;5098986;28;20459;-78
2023/03/25 01:03:39;;;;;;;4.27;2.30;;;9.60;90.20;;;9.19;76.53;97135.00;5092869;28;20517;-80
2023/03/25 01:06:11;;;;;;;3.67;3.07;;;9.60;91.40;;;9.32;77.69;97191.41;5087609;28;20455;-79
2023/03/25 01:08:38;;;;;;;4.00;2.90;;;9.50;91.50;;;8.85;78.35;97134.59;5087002;28;20463;-78
2023/03/25 01:11:17;;;;;;;3.33;2.67;;;9.40;92.10;;;9.00;79.05;97148.50;5081476;28;20539;-78
2023/03/25 01:13:45;;;;;;;3.00;2.17;;;9.30;92.00;;;8.86;79.27;97141.63;5085941;28;20465;-79
2023/03/25 01:16:13;;;;;;;3.67;2.27;;;9.20;92.80;;;8.61;80.11;97135.28;5100915;28;20474;-79
2023/03/25 01:18:40;;;;;;;3.73;2.27;;;9.10;94.00;;;8.62;79.59;97153.06;5092801;28;20459;-79
2023/03/25 01:21:09;;;;;;;3.60;2.27;;;9.00;92.70;;;8.77;80.23;97174.25;5095124;28;20467;-80
2023/03/25 01:23:36;;;;;;;2.00;1.80;;;9.00;93.20;;;8.63;79.09;97154.72;5085406;28;20479;-80
2023/03/25 01:26:05;;;;;;;2.37;1.90;;;9.00;92.30;;;8.68;78.64;97164.81;5086007;28;20458;-80
2023/03/25 01:28:32;;;;;;;4.63;1.63;;;9.00;92.30;;;8.79;78.44;97174.03;5108528;28;20447;-77
2023/03/25 01:31:15;;;;;;;4.23;2.63;;;9.00;92.10;;;8.64;78.56;97172.56;5109099;28;20434;-78
2023/03/25 01:33:42;;;;;;;2.90;1.87;;;8.90;91.70;;;8.73;78.50;97170.38;5096101;28;20475;-80
2023/03/25 01:36:11;;;;;;;3.33;1.60;;;8.90;92.10;;;8.70;78.48;97164.63;5101299;28;20456;-79
2023/03/25 01:38:40;;;;;;;1.70;1.60;;;8.80;92.20;;;8.71;77.88;97185.09;5091326;28;20449;-79
2023/03/25 01:41:08;;;;;;;2.47;1.70;;;8.80;92.00;;;8.44;79.06;97178.09;5090727;28;20454;-81
2023/03/25 01:43:36;;;;;;;3.53;1.87;;;8.70;92.20;;;8.37;79.31;97155.78;5085242;28;20478;-79
2023/03/25 01:46:05;;;;;;;2.77;1.33;;;8.80;92.30;;;8.54;78.55;97168.69;5099073;28;20549;-80
2023/03/25 01:48:39;;;;;;;3.60;1.30;;;8.70;92.10;;;8.43;79.00;97165.69;5086128;28;20444;-78
2023/03/25 01:51:12;;;;;;;2.73;1.67;;;8.60;92.20;;;8.42;79.56;97168.59;5090259;28;21080;-77
2023/03/25 01:53:40;;;;;;;2.60;1.27;;;8.60;92.80;;;8.28;79.36;97163.34;5113082;28;20523;-79
2023/03/25 01:56:12;;;;;;;4.17;1.20;;;8.50;92.50;;;8.43;78.77;97156.78;5113038;28;20847;-79
2023/03/25 01:58:40;;;;;;;4.80;1.40;;;8.60;92.30;;;8.54;78.44;97160.63;5086928;28;20450;-79
2023/03/25 02:01:12;;;;;;;1.57;1.20;;;8.60;92.40;;;8.54;77.98;97157.94;5074199;28;20776;-77
2023/03/25 02:03:45;;;;;;;2.00;1.17;;;8.60;92.00;;;8.44;77.95;97145.81;5090396;28;20462;-79
2023/03/25 02:06:18;;;;;;;2.03;0.90;;;8.60;92.00;;;8.47;77.87;97156.13;5083802;28;20442;-80
2023/03/25 02:08:47;;;;;;;1.40;1.27;;;8.60;91.70;;;8.50;77.95;97144.94;5090585;28;20461;-77
2023/03/25 02:11:15;;;;;;;2.07;1.10;;;8.60;91.60;;;8.43;77.66;97164.84;5092322;28;20449;-79
2023/03/25 02:13:42;;;;;;;1.67;1.00;;;8.60;91.50;;;8.45;77.27;97152.00;5076715;28;20748;-76
2023/03/25 02:16:27;;;;;;;3.30;1.00;;;8.60;91.40;;;8.44;77.24;97153.88;5087944;28;20447;-78
2023/03/25 02:19:23;;;;;;;6.57;1.70;;;8.60;91.00;;;8.31;77.42;97135.16;5092178;28;20461;-76
2023/03/25 02:22:28;;;;;;;1.47;0.90;;;8.60;90.90;;;8.48;76.92;97141.59;5062790;28;20550;-76
2023/03/25 02:25:44;;;;;;;2.30;0.90;;;8.60;90.70;;;8.37;77.33;97147.72;5080261;28;20459;-77
2023/03/25 02:28:24;;;;;;;2.27;0.90;;;8.60;90.50;;;8.41;76.58;97157.00;5074960;28;20457;-76
2023/03/25 02:31:18;;;;;;;1.30;0.60;;;8.60;90.40;;;8.46;75.93;97154.47;5097138;28;20454;-76
2023/03/25 02:34:18;;;;;;;2.33;1.10;;;8.60;90.00;;;8.47;75.26;97160.66;5085393;28;21031;-78
2023/03/25 02:37:32;;;;;;;1.43;0.67;;;8.60;89.00;;;8.41;74.94;97156.19;5065653;28;20460;-78
2023/03/25 02:40:06;;;;;;;2.17;0.90;;;8.60;88.80;;;8.28;75.15;97162.53;5086118;28;20506;-78
2023/03/25 02:42:42;;;;;;;3.70;0.97;;;8.60;88.00;;;8.32;74.48;97156.47;5103957;27;20480;-79
2023/03/25 02:45:16;;;;;;;1.33;0.90;;;8.50;87.40;;;8.39;74.23;97164.47;5082386;28;20566;-77
2023/03/25 02:47:50;;;;;;;3.33;0.90;;;8.50;87.50;;;8.33;74.52;97170.75;5086176;28;20565;-77
2023/03/25 02:50:23;;;;;;;2.57;0.90;;;8.50;87.20;;;8.38;73.55;97178.97;5095281;27;20447;-77
2023/03/25 02:52:55;;;;;;;3.30;0.93;;;8.50;86.50;;;8.42;73.50;97165.91;5084093;28;20813;-77
2023/03/25 02:55:25;;;;;;;5.63;1.10;;;8.50;86.40;;;8.30;73.74;97163.13;5090329;28;20484;-77
2023/03/25 02:57:58;;;;;;;1.70;0.80;;;8.50;86.80;;;8.30;73.95;97171.19;5108856;28;20522;-77
2023/03/25 03:00:28;;;;;;;0.80;0.60;;;8.40;86.70;;;8.30;73.34;97172.00;5103090;28;20438;-77
2023/03/25 03:02:59;;;;;;;1.77;0.70;;;8.40;86.80;;;8.16;73.45;97149.78;5114067;28;20664;-75
2023/03/25 03:05:30;;;;;;;2.30;0.70;;;8.40;86.80;;;8.34;73.60;97167.00;5093805;28;20448;-77
2023/03/25 03:08:17;;;;;;;3.53;1.10;;;8.40;86.00;;;8.18;73.48;97163.84;5104545;28;20782;-76
2023/03/25 03:10:53;;;;;;;1.10;0.70;;;8.40;85.60;;;8.27;72.77;97171.66;5085480;28;20463;-81
2023/03/25 03:13:33;;;;;;;2.47;0.80;;;8.40;85.60;;;7.98;74.21;97155.94;5092818;28;20460;-79
2023/03/25 03:16:12;;;;;;;3.07;0.77;;;8.30;86.00;;;8.06;74.09;97165.59;5102242;28;20512;-82
2023/03/25 03:18:50;;;;;;;3.50;0.90;;;8.20;86.60;;;8.00;73.95;97155.72;5090869;28;20929;-79
2023/03/25 03:21:23;;;;;;;3.60;0.87;;;8.20;86.50;;;8.10;73.78;97169.50;5085876;28;20551;-79
2023/03/25 03:23:58;;;;;;;6.57;1.20;;;8.30;86.50;;;8.12;73.92;97159.34;5085673;28;20478;-79
2023/03/25 03:26:37;;;;;;;1.60;1.03;;;8.30;86.30;;;8.10;73.48;97145.28;5093008;28;20514;-77
2023/03/25 03:29:12;;;;;;;3.47;1.17;;;8.40;86.20;;;8.21;73.00;97151.81;5094637;28;20546;-78
2023/03/25 03:31:44;;;;;;;4.80;0.87;;;8.50;86.00;;;8.22;73.30;97153.47;5086353;28;20460;-78
2023/03/25 03:34:20;;;;;;;2.00;0.97;;;8.50;85.90;;;8.30;73.49;97161.25;5098757;28;20452;-82
2023/03/25 03:36:51;;;;;;;3.93;0.93;;;8.60;85.70;;;8.23;73.71;97161.31;5076714;28;20459;-78
2023/03/25 03:39:23;;;;;;;1.60;0.90;;;8.60;85.50;;;8.38;72.47;97151.25;5090465;28;20481;-79
2023/03/25 03:41:56;;;;;;;2.27;0.80;;;8.60;85.60;;;8.46;72.99;97167.94;5096232;28;20454;-80
2023/03/25 03:44:30;;;;;;;2.33;0.90;;;8.60;85.60;;;8.41;73.23;97158.88;5094322;28;20787;-81
2023/03/25 03:47:01;;;;;;;1.20;0.80;;;8.60;86.10;;;8.57;72.97;97170.94;5092637;28;20456;-80
2023/03/25 03:49:37;;;;;;;1.60;1.00;;;8.60;85.90;;;8.48;73.37;97176.59;5095653;28;20442;-82
2023/03/25 03:52:10;;;;;;;3.37;1.10;;;8.60;86.00;;;8.57;73.43;97170.94;5092546;28;20873;-80
2023/03/25 03:54:43;;;;;;;1.80;0.90;;;8.60;86.50;;;8.50;73.89;97161.09;5101022;27;20789;-80
2023/03/25 03:57:19;;;;;;;3.20;0.80;;;8.60;87.10;;;8.34;74.21;97134.72;5096963;28;20465;-81
2023/03/25 03:59:55;;;;;;;2.73;0.90;;;8.70;87.00;;;8.66;73.64;97163.41;5097032;28;20476;-79
2023/03/25 04:02:31;;;;;;;3.00;1.10;;;8.70;87.10;;;8.58;73.94;97156.47;5095102;28;20561;-80
2023/03/25 04:04:59;;;;;;;1.33;0.97;;;8.70;87.20;;;8.54;74.51;97163.31;5086500;28;20482;-81
2023/03/25 04:07:37;;;;;;;1.57;1.00;;;8.70;87.50;;;8.39;74.69;97148.31;5092424;28;20454;-81
2023/03/25 04:10:13;;;;;;;3.70;0.87;;;8.60;87.40;;;8.43;74.70;97157.63;5086763;28;20457;-81
2023/03/25 04:12:46;;;;;;;3.13;1.30;;;8.60;87.70;;;8.51;74.51;97172.69;5090296;28;20454;-81
2023/03/25 04:15:17;;;;;;;1.80;1.07;;;8.60;87.90;;;8.33;75.86;97176.13;5091842;28;20536;-77
2023/03/25 04:17:46;;;;;;;2.23;0.80;;;8.60;88.80;;;8.12;76.88;97163.91;5091433;28;20468;-78
2023/03/25 04:20:17;;;;;;;2.40;0.90;;;8.50;90.20;;;7.83;77.35;97129.38;5078840;28;20455;-77
2023/03/25 04:22:45;;;;;;;3.53;1.00;;;8.50;91.40;;;7.84;79.75;97179.44;5101922;28;20470;-79
2023/03/25 04:25:13;;;;;;;4.00;0.93;;;8.30;92.60;;;7.97;80.06;97196.53;5094686;28;20974;-78
2023/03/25 04:27:47;;;;;;;1.53;1.00;;;8.10;93.40;;;7.72;80.56;97197.31;5101771;28;20457;-78
2023/03/25 04:30:16;;;;;;;1.10;0.60;;;8.00;93.10;;;7.63;79.97;97184.13;5087890;28;20926;-77
2023/03/25 04:32:46;;;;;;;3.70;0.80;;;7.90;93.10;;;7.33;79.87;97130.97;5104955;28;20435;-78
2023/03/25 04:35:13;;;;;;;2.80;0.60;;;7.80;93.50;;;7.40;80.91;97170.44;5091638;28;20877;-78
2023/03/25 04:37:44;;;;;;;2.90;1.10;;;7.80;94.40;;;7.67;80.98;97195.28;5089810;28;20465;-78
2023/03/25 04:40:15;;;;;;;1.53;0.70;;;7.70;94.50;;;7.58;81.49;97200.09;5101112;28;20464;-79
2023/03/25 04:42:45;;;;;;;2.37;0.73;;;7.70;95.00;;;7.70;81.01;97194.03;5075245;28;20932;-80
2023/03/25 04:45:15;;;;;;;2.30;0.80;;;7.80;94.70;;;7.73;80.37;97199.78;5087302;28;20498;-78
2023/03/25 04:47:45;;;;;;;2.60;0.80;;;7.80;94.30;;;7.08;80.49;97117.47;5089017;28;20494;-80
2023/03/25 04:50:20;;;;;;;3.83;0.90;;;7.80;93.50;;;7.55;80.87;97192.47;5089334;28;20452;-78
2023/03/25 04:52:48;;;;;;;3.43;0.63;;;7.80;93.70;;;7.52;79.71;97182.16;5092505;28;20446;-80
2023/03/25 04:55:18;;;;;;;2.00;0.80;;;7.70;93.00;;;6.94;78.55;97106.00;5076355;28;20456;-77
2023/03/25 04:57:49;;;;;;;1.20;0.70;;;7.70;92.00;;;7.48;77.84;97191.66;5078791;28;20859;-79
2023/03/25 05:00:21;;;;;;;1.47;0.70;;;7.70;90.90;;;7.47;77.23;97182.78;5081363;28;20462;-79
2023/03/25 05:02:50;;;;;;;0.90;0.47;;;7.70;90.80;;;7.61;76.13;97196.97;5079370;28;20450;-79
2023/03/25 05:05:20;;;;;;;1.27;0.50;;;7.70;90.00;;;7.47;74.66;97185.47;5076450;28;20482;-78
2023/03/25 05:07:49;;;;;;;2.50;0.80;;;7.70;87.90;;;7.32;75.04;97188.44;5079782;28;20510;-77
2023/03/25 05:10:17;;;;;;;1.00;0.50;;;7.60;87.70;;;7.42;74.03;97219.41;5076095;28;20509;-77
2023/03/25 05:12:44;;;;;;;0.97;0.40;;;7.60;86.30;;;7.40;73.24;97205.38;5092308;28;20470;-77
2023/03/25 05:15:14;;;;;;;1.70;0.50;;;7.60;85.00;;;7.26;73.13;97183.94;5096954;28;20458;-79
2023/03/25 05:17:42;;;;;;;0.90;0.57;;;7.60;85.60;;;7.53;73.06;97218.75;5089450;28;20551;-78
2023/03/25 05:20:12;;;;;;;1.23;0.60;;;7.60;85.40;;;7.50;72.29;97232.59;5095182;28;20443;-78
2023/03/25 05:22:40;;;;;;;0.87;0.40;;;7.60;84.90;;;7.57;72.55;97233.38;5080283;28;21018;-77
2023/03/25 05:25:10;;;;;;;1.50;1.00;;;7.70;84.40;;;7.62;72.55;97241.63;5085520;28;20494;-79
2023/03/25 05:27:38;;;;;;;0.90;0.50;;;7.70;84.60;;;7.57;71.93;97230.69;5082888;28;20447;-78
2023/03/25 05:30:08;;;;;;;1.30;0.73;;;7.70;84.20;;;7.54;71.65;97222.22;5093964;28;20459;-78
2023/03/25 05:32:39;;;;;;;0.83;0.60;;;7.70;83.50;;;7.63;72.65;97245.97;5084306;28;20450;-77
2023/03/25 05:35:09;;;;;;;1.40;0.60;;;7.70;84.10;;;7.51;71.67;97245.81;5077072;28;20965;-77
2023/03/25 05:37:37;;;;;;;1.03;0.57;;;7.70;83.60;;;7.56;72.00;97247.88;5078902;28;20462;-78
2023/03/25 05:40:06;;;;;;;3.07;0.80;;;7.70;83.80;;;7.43;72.35;97247.94;5077590;28;20964;-78
2023/03/25 05:42:33;;;;;;;1.93;0.60;;;7.70;83.70;;;7.59;71.21;97252.00;5084185;28;20468;-77
2023/03/25 05:45:01;;;;;;;2.20;0.70;;;7.70;83.10;;;7.48;71.50;97256.16;5089010;28;20482;-79
2023/03/25 05:47:28;;;;;;;1.33;0.73;;;7.70;83.00;;;7.40;71.66;97262.63;5098174;28;20446;-77
2023/03/25 05:49:57;;;;;;;1.47;0.70;;;7.70;83.10;;;7.59;71.12;97271.63;5107731;28;20446;-76
2023/03/25 05:52:26;;;;;;;1.17;0.60;;;7.70;83.30;;;7.49;71.30;97250.59;5103813;28;20438;-77
2023/03/25 05:54:54;;;;;;;4.83;0.70;;;7.70;83.80;;;7.74;71.63;97281.28;5109106;28;20447;-77
2023/03/25 05:57:21;;;;;;;1.13;0.73;;;7.80;83.80;;;7.48;71.36;97277.66;5096385;28;20450;-77
2023/03/25 05:59:48;;;;;;;2.23;0.70;;;7.70;83.10;;;7.48;72.51;97283.88;5094652;28;20449;-78
2023/03/25 06:02:18;;;;;;;2.20;0.60;;;7.70;83.70;;;7.68;71.64;97287.53;5112976;27;21268;-78
2023/03/25 06:04:51;;;;;;;1.20;0.57;;;7.70;83.10;;;7.56;71.71;97285.50;5087471;28;20531;-76
2023/03/25 06:07:19;;;;;;;2.00;0.60;;;7.80;83.80;;;7.47;71.92;97276.03;5095305;28;20451;-75
2023/03/25 06:09:47;;;;;;;1.07;0.80;;;7.70;83.30;;;7.54;72.37;97294.81;5090704;28;20529;-78
2023/03/25 06:12:16;;;;;;;1.17;0.80;;;7.80;83.50;;;7.55;71.78;97294.63;5090612;28;20949;-78
2023/03/25 06:14:44;;;;;;;1.80;0.90;;;7.70;83.40;;;7.48;72.28;97296.50;5091237;28;20486;-79
2023/03/25 06:17:13;;;;;;;1.17;0.67;;;7.70;83.80;;;7.43;71.82;97286.41;5096455;28;20537;-81
2023/03/25 06:19:41;;;;;;;1.97;0.70;;;7.70;83.50;;;7.94;73.23;97303.50;5098051;28;20455;-79
2023/03/25 06:22:11;;;;;;;1.97;0.80;;;7.90;84.40;;;7.57;71.36;97228.00;5094388;28;20550;-80
2023/03/25 06:24:40;;;;;;;5.77;1.13;;;8.10;83.70;;;8.01;71.75;97271.16;5095917;28;20463;-79
2023/03/25 06:27:16;;;;;;;4.43;0.70;;;8.20;84.60;;;8.01;70.11;97271.16;5113696;27;20472;-80
2023/03/25 06:29:46;;;;;;;3.10;0.83;;;8.40;83.00;;;8.30;70.99;97293.13;5089902;28;20443;-81
2023/03/25 06:32:15;;;;;;;1.37;0.67;;;8.40;83.50;;;8.60;71.82;97297.88;5080584;28;20450;-81
2023/03/25 06:34:43;;;;;;;2.47;0.80;;;8.50;84.80;;;8.06;69.93;97297.44;5076841;28;20439;-78
2023/03/25 06:37:11;;;;;;;2.20;0.60;;;8.40;81.70;;;7.59;69.24;97209.00;5087666;28;21028;-81
2023/03/25 06:39:40;;;;;;;1.20;0.60;;;8.30;81.30;;;8.00;69.52;97290.25;5081029;28;20462;-82
2023/03/25 06:42:08;;;;;;;3.03;0.80;;;8.30;81.10;;;7.95;68.75;97277.44;5083658;28;20490;-78
2023/03/25 06:44:35;;;;;;;1.10;0.60;;;8.20;81.00;;;7.96;69.12;97283.63;5091961;28;20481;-78
2023/03/25 06:47:04;;;;;;;3.57;1.40;;;8.20;80.70;;;8.16;67.94;97294.25;5084760;28;20945;-76
2023/03/25 06:49:32;;;;;;;2.87;0.70;;;8.40;80.40;;;8.18;67.69;97287.63;5093849;28;20441;-77
2023/03/25 06:52:00;;;;;;;1.23;0.57;;;8.50;79.90;;;8.36;67.03;97289.56;5087661;28;20462;-79
2023/03/25 06:54:27;;;;;;;1.00;0.70;;;8.50;79.70;;;8.55;66.42;97281.56;5107880;27;20566;-78
2023/03/25 06:56:55;;;;;;;4.50;1.00;;;8.60;79.30;;;8.60;66.25;97289.81;5096756;28;20462;-75
2023/03/25 06:59:23;;;;;;;1.10;0.50;;;8.70;79.00;;;8.58;65.57;97293.78;5105218;28;20549;-74
2023/03/25 07:01:50;;;;;;;3.67;0.83;;;8.80;78.50;;;8.54;66.00;97289.88;5091768;28;21179;-82
2023/03/25 07:04:17;;;;;;;4.60;1.10;;;8.80;78.60;;;8.50;65.70;97279.53;5086275;28;20559;-77
2023/03/25 07:06:44;;;;;;;2.20;0.70;;;8.70;78.50;;;8.56;65.02;97293.16;5107189;27;20451;-76
2023/03/25 07:09:12;;;;;;;2.60;1.10;;;8.80;77.70;;;8.74;63.92;97297.78;5083908;28;20526;-76
2023/03/25 07:11:39;;;;;;;2.80;1.00;;;8.80;77.80;;;8.71;65.04;97290.13;5072548;28;20954;-73
2023/03/25 07:14:08;;;;;;;1.80;0.73;;;8.90;77.90;;;9.04;64.36;97297.06;5086737;28;21056;-73
2023/03/25 07:16:35;;;;;;;1.90;0.70;;;9.10;78.00;;;8.81;64.26;97289.63;5078293;28;20451;-73
2023/03/25 07:19:02;;;;;;;2.50;1.03;;;9.10;77.40;;;8.83;63.89;97290.22;5085246;28;20496;-74
2023/03/25 07:21:29;;;;;;;4.00;0.90;;;9.10;77.20;;;8.74;65.54;97279.75;5092375;28;20463;-74
2023/03/25 07:23:57;;;;;;;2.93;0.90;;;9.10;78.00;;;9.21;63.51;97290.03;5093219;28;20509;-74
2023/03/25 07:26:24;;;;;;;1.27;0.80;;;9.20;77.30;;;9.21;63.42;97290.03;5085551;28;20455;-69
2023/03/25 07:28:51;;;;;;;1.73;0.97;;;9.40;77.20;;;9.52;62.71;97287.41;5088423;28;20492;-70
2023/03/25 07:31:20;;;;;;;2.27;1.03;;;9.50;77.10;;;9.46;62.90;97293.69;5068059;28;20451;-68
2023/03/25 07:33:47;;;;;;;2.60;0.87;;;9.60;77.10;;;9.48;63.38;97303.22;5085782;28;20450;-69
2023/03/25 07:36:14;;;;;;;2.30;1.00;;;9.60;77.00;;;9.58;63.36;97304.56;5078995;28;20462;-69
2023/03/25 07:38:41;;;;;;;1.77;0.87;;;9.60;77.20;;;9.38;62.95;97300.22;5088170;28;20501;-69
2023/03/25 07:41:12;;;;;;;2.83;0.87;;;9.60;76.50;;;9.28;63.50;97310.72;5069952;28;20496;-68
2023/03/25 07:43:40;;;;;;;1.83;1.00;;;9.50;76.90;;;9.50;63.99;97319.19;5081952;28;20544;-70
2023/03/25 07:46:07;;;;;;;1.60;0.80;;;9.50;77.40;;;9.03;63.97;97304.34;5075623;28;20588;-73
2023/03/25 07:48:36;;;;;;;1.77;0.70;;;9.50;76.80;;;9.16;63.52;97310.63;5080963;28;20526;-68
2023/03/25 07:51:04;;;;;;;2.10;0.50;;;9.40;76.70;;;9.20;63.73;97315.34;5076949;28;20511;-69
2023/03/25 07:53:31;;;;;;;2.33;0.77;;;9.40;77.00;;;8.99;64.90;97308.50;5084478;28;20461;-69
2023/03/25 07:55:59;;;;;;;1.53;0.87;;;9.30;77.10;;;9.50;63.09;97311.91;5079522;28;20479;-70
2023/03/25 07:58:26;;;;;;;1.60;0.73;;;9.50;76.80;;;9.86;62.38;97309.38;5078034;28;20455;-68
2023/03/25 08:00:57;;;;;;;2.13;0.60;;;9.90;76.70;;;9.56;63.23;97318.25;5085140;28;20466;-74
2023/03/25 08:03:24;;;;;;;3.30;1.40;;;9.80;76.40;;;9.45;62.50;97316.31;5077709;28;20447;-69
2023/03/25 08:05:53;;;;;;;2.83;0.73;;;9.80;76.30;;;9.69;62.53;97325.34;5078676;28;20536;-69
2023/03/25 08:08:20;;;;;;;3.93;1.00;;;9.80;76.30;;;9.56;62.98;97307.47;5078584;28;20447;-69
2023/03/25 08:10:48;;;;;;;1.53;0.63;;;9.80;76.60;;;9.74;62.35;97314.72;5095867;27;20495;-69
2023/03/25 08:13:15;;;;;;;1.63;0.60;;;9.90;76.50;;;9.89;61.68;97308.91;5101796;27;20446;-70
2023/03/25 08:15:42;;;;;;;5.17;1.33;;;10.10;74.80;;;10.29;61.02;97309.41;5078817;28;20463;-69
2023/03/25 08:18:10;;;;;;;3.47;0.83;;;10.40;74.60;;;9.99;61.10;97299.47;5077630;28;20468;-69
2023/03/25 08:20:37;;;;;;;2.20;1.20;;;10.40;73.80;;;10.10;60.23;97312.19;5085767;28;20457;-70
2023/03/25 08:23:09;;;;;;;2.00;0.50;;;10.40;73.80;;;10.13;59.61;97311.72;5080728;28;20491;-71
2023/03/25 08:25:37;;;;;;;3.80;1.20;;;10.40;72.90;;;10.12;60.60;97312.78;5098048;27;20462;-69
2023/03/25 08:28:05;;;;;;;10.80;1.73;;;10.40;73.30;;;10.39;60.43;97315.09;5102323;27;20462;-68
2023/03/25 08:30:37;;;;;;;2.20;0.80;;;10.50;73.40;;;10.36;58.52;97304.72;5073444;28;20491;-70
2023/03/25 08:33:05;;;;;;;2.67;0.70;;;10.60;72.10;;;10.03;59.82;97314.97;5082084;28;20558;-67
2023/03/25 08:35:33;;;;;;;2.50;1.50;;;10.40;72.50;;;10.10;59.34;97316.75;5073730;28;20457;-69
2023/03/25 08:38:04;;;;;;;4.00;1.07;;;10.30;72.20;;;10.38;58.25;97308.00;5079031;28;20454;-69
2023/03/25 08:40:32;;;;;;;4.27;0.90;;;10.50;71.60;;;10.20;58.59;97298.94;5079617;28;20850;-70
2023/03/25 08:42:59;;;;;;;4.80;0.87;;;10.40;71.30;;;10.56;57.47;97304.44;5081073;28;20490;-69
2023/03/25 08:45:27;;;;;;;3.33;0.90;;;10.70;71.00;;;10.74;56.77;97303.53;5083904;28;20483;-69
2023/03/25 08:47:54;;;;;;;5.63;1.30;;;10.90;70.30;;;10.94;55.74;97310.47;5080246;28;20963;-70
2023/03/25 08:50:21;;;;;;;2.20;1.33;;;11.10;69.80;;;10.67;55.15;97305.50;5071446;28;20456;-69
2023/03/25 08:52:48;;;;;;;6.37;1.67;;;11.00;68.40;;;10.68;54.84;97311.75;5078952;28;20474;-73
2023/03/25 08:55:16;;;;;;;4.50;1.60;;;10.90;67.60;;;10.65;55.93;97310.31;5085358;28;21057;-67
2023/03/25 08:57:45;;;;;;;2.40;0.80;;;10.80;68.00;;;11.09;54.59;97301.88;5085778;28;20465;-72
2023/03/25 09:00:15;;;;;;;4.00;1.20;;;11.10;68.10;;;11.11;54.49;97307.03;5095467;28;20451;-69
2023/03/25 09:02:43;;;;;;;2.50;1.00;;;11.30;67.50;;;10.95;55.14;97306.69;5092289;28;20443;-67
2023/03/25 09:05:14;;;;;;;4.50;1.50;;;11.20;67.40;;;11.23;54.37;97297.03;5087029;28;20467;-68
2023/03/25 09:07:42;;;;;;;3.37;1.40;;;11.30;66.80;;;11.31;53.47;97282.31;5081082;28;20485;-69
2023/03/25 09:10:11;;;;;;;7.20;1.70;;;11.40;66.40;;;11.16;53.78;97282.84;5092236;28;20454;-70
2023/03/25 09:12:39;;;;;;;8.40;2.03;;;11.40;66.30;;;11.26;53.59;97268.72;5088239;28;20515;-70
2023/03/25 09:15:11;;;;;;;6.03;1.47;;;11.40;66.00;;;11.23;53.36;97270.00;5086158;28;20446;-70
2023/03/25 09:17:39;;;;;;;3.83;1.20;;;11.50;65.40;;;11.22;54.26;97287.28;5084845;28;20466;-69
2023/03/25 09:20:08;;;;;;;3.00;1.27;;;11.40;65.60;;;10.94;53.33;97286.13;5080931;28;20455;-69
2023/03/25 09:22:35;;;;;;;5.20;1.10;;;11.20;64.00;;;10.97;52.58;97282.94;5087637;28;20448;-68
2023/03/25 09:25:03;;;;;;;4.10;1.13;;;11.20;63.90;;;11.43;52.67;97268.78;5087496;28;20475;-72
2023/03/25 09:27:30;;;;;;;1.97;0.80;;;11.50;64.50;;;11.46;52.98;97271.03;5091298;28;21053;-68
2023/03/25 09:29:57;;;;;;;3.70;1.00;;;11.60;64.40;;;11.62;52.05;97272.13;5086157;28;20463;-66
2023/03/25 09:32:26;;;;;;;6.93;1.67;;;11.70;63.50;;;11.94;51.64;97278.97;5084769;28;20462;-66
2023/03/25 09:34:53;;;;;;;7.07;1.13;;;11.90;64.30;;;11.60;51.79;97269.69;5102502;27;20483;-69
2023/03/25 09:37:21;;;;;;;6.10;1.53;;;11.90;62.80;;;11.92;51.04;97275.69;5089399;28;20458;-65
2023/03/25 09:39:49;;;;;;;4.50;1.60;;;12.00;62.80;;;11.65;50.17;97282.47;5082544;28;20473;-66
2023/03/25 09:42:45;;;;;;;5.07;1.87;;;12.00;61.10;;;11.77;49.88;97274.31;5089272;28;20477;-67
2023/03/25 09:45:26;;;;;;;2.53;1.13;;;11.90;60.60;;;12.05;49.24;97275.38;5086647;28;20594;-66
2023/03/25 09:48:01;;;;;;;3.20;1.37;;;12.20;60.10;;;12.27;49.35;97269.28;5076900;28;20558;-67
2023/03/25 09:50:32;;;;;;;2.73;1.13;;;12.40;60.40;;;12.17;50.30;97272.63;5083525;28;20463;-66
2023/03/25 09:53:04;;;;;;;4.37;1.13;;;12.40;60.80;;;11.52;50.33;97205.13;5076720;28;20515;-66
2023/03/25 09:55:36;;;;;;;3.33;1.00;;;12.10;60.30;;;12.08;50.11;97264.09;5087677;28;20455;-65
2023/03/25 09:58:24;;;;;;;2.63;0.80;;;12.20;60.30;;;12.56;49.36;97274.63;5071649;28;20951;-65
2023/03/25 10:00:57;;;;;;;1.90;1.03;;;12.50;60.50;;;12.49;49.28;97257.72;5085463;28;20458;-66
2023/03/25 10:03:34;;;;;;;2.47;1.00;;;12.60;59.90;;;12.37;49.49;97260.50;5080652;28;20459;-66
2023/03/25 10:06:13;;;;;;;2.93;0.83;;;12.50;59.80;;;11.87;50.33;97257.47;5078960;28;20477;-66
2023/03/25 10:09:18;;;;;;;2.97;0.80;;;12.20;59.40;;;11.86;49.78;97253.91;5080771;28;20942;-66
2023/03/25 10:11:56;;;;;;;2.07;1.00;;;12.00;58.60;;;11.45;50.11;97202.56;5088265;28;20593;-66
2023/03/25 10:14:28;;;;;;;1.20;0.70;;;12.00;59.60;;;11.80;50.49;97257.59;5105023;28;21020;-65
2023/03/25 10:17:12;;;;;;;1.60;0.80;;;12.10;59.80;;;11.82;50.07;97249.22;5089261;28;20539;-66
2023/03/25 10:19:53;;;;;;;1.93;0.97;;;12.20;59.50;;;12.45;49.32;97250.06;5080944;28;20474;-67
2023/03/25 10:22:29;;;;;;;5.20;1.20;;;12.40;59.50;;;12.31;48.96;97246.06;5089281;28;20953;-65
2023/03/25 10:25:00;;;;;;;2.53;1.07;;;12.60;58.70;;;12.36;49.53;97246.16;5088818;28;20428;-65
2023/03/25 10:27:34;;;;;;;1.37;0.63;;;12.50;59.00;;;12.41;49.02;97239.97;5088962;28;21004;-65
2023/03/25 10:30:10;;;;;;;1.97;0.67;;;12.50;58.70;;;12.93;48.34;97236.16;5106240;28;20467;-66
2023/03/25 10:32:43;;;;;;;2.13;0.67;;;12.70;59.00;;;12.39;49.29;97232.13;5087731;28;20458;-67
2023/03/25 10:35:16;;;;;;;2.43;1.10;;;12.60;59.00;;;12.37;50.00;97231.53;5097594;28;20466;-66
2023/03/25 10:37:46;;;;;;;4.83;1.30;;;12.50;59.60;;;12.25;50.65;97247.03;5086648;28;21314;-65
2023/03/25 10:40:21;;;;;;;1.70;0.90;;;12.40;59.90;;;11.81;51.31;97232.19;5087437;28;21005;-65
2023/03/25 10:43:03;;;;;;;4.20;0.97;;;12.10;59.90;;;11.53;53.82;97236.53;5089628;28;20442;-66
2023/03/25 10:45:32;;;;;;;2.60;0.90;;;11.80;61.80;;;11.08;55.19;97251.59;5089426;28;20528;-65
2023/03/25 10:48:10;;;;;;;2.57;0.87;;;11.40;63.10;;;11.44;55.25;97237.97;5085826;28;20476;-67